createdAt,value
2022-08-31T00:06:17.325Z,100160.03
2022-08-31T00:16:31.367Z,100145.75
2022-08-31T00:26:45.330Z,100218.16
2022-08-31T00:36:58.346Z,100121.13
2022-08-31T00:47:11.372Z,100040.84
2022-08-31T00:57:30.110Z,100030.16
2022-08-31T01:07:48.372Z,100047.53
2022-08-31T01:18:03.374Z,100147.69
2022-08-31T01:28:17.385Z,100213.56
2022-08-31T01:38:30.402Z,100230.72
2022-08-31T01:48:43.407Z,100132.37
2022-08-31T01:58:56.423Z,100020.16
2022-08-31T02:09:10.426Z,99947.72
2022-08-31T02:19:23.419Z,99924.06
2022-08-31T02:29:36.446Z,99964.22
2022-08-31T02:39:50.311Z,100034.66
2022-08-31T02:50:03.446Z,99984.03
2022-08-31T03:00:17.451Z,100001.47
2022-08-31T03:10:32.463Z,100027.75
2022-08-31T03:20:45.486Z,100134.09
2022-08-31T03:30:58.527Z,100218.47
2022-08-31T03:41:11.490Z,100347.59
2022-08-31T03:51:25.517Z,100419.72
2022-08-31T04:01:45.565Z,100462.25
2022-08-31T04:12:04.523Z,100479.91
2022-08-31T04:22:17.518Z,100581.56
2022-08-31T04:32:30.548Z,100687.72
2022-08-31T04:42:44.533Z,100667.09
2022-08-31T04:53:03.048Z,100771.75
2022-08-31T05:03:16.547Z,100991.94
2022-08-31T05:13:29.595Z,101116.56
2022-08-31T05:23:42.562Z,101318.47
2022-08-31T05:33:55.598Z,101639.16
2022-08-31T05:44:09.608Z,101374.84
2022-08-31T05:54:23.597Z,100923.78
2022-08-31T06:04:36.617Z,100585.09
2022-08-31T06:14:56.606Z,100238.72
2022-08-31T06:25:09.645Z,100128.81
2022-08-31T06:35:22.664Z,100027.69
2022-08-31T06:45:35.649Z,100091.03
2022-08-31T06:55:48.663Z,100055.81
2022-08-31T07:06:01.657Z,100044.63
2022-08-31T07:16:24.724Z,100054.72
2022-08-31T07:26:48.679Z,100129.28
2022-08-31T07:37:23.698Z,100142.44
2022-08-31T07:47:36.703Z,100117.16
2022-08-31T07:57:51.695Z,100129.88
2022-08-31T08:08:15.624Z,99994.06
2022-08-31T08:18:28.706Z,99965.41
2022-08-31T08:28:41.767Z,99955.25
2022-08-31T08:38:57.738Z,99922.06
2022-08-31T08:49:26.751Z,99899.31
2022-08-31T08:59:39.791Z,99885.94
2022-08-31T09:10:09.760Z,99850.13
2022-08-31T09:20:25.763Z,99820.88
2022-08-31T09:30:46.797Z,99864.37
2022-08-31T09:41:00.856Z,99739.53
2022-08-31T09:51:21.817Z,99714.94
2022-08-31T10:01:52.846Z,99660.47
2022-08-31T10:12:09.809Z,99628.19
2022-08-31T10:22:33.828Z,99644.59
2022-08-31T10:33:17.944Z,99639.16
2022-08-31T10:43:36.870Z,99609.16
2022-08-31T10:54:16.847Z,99574.66
2022-08-31T11:04:55.931Z,99573.56
2022-08-31T11:15:42.970Z,99536.91
2022-08-31T11:26:17.869Z,99534.72
2022-08-31T11:36:50.922Z,99519.72
2022-08-31T11:47:11.875Z,99491.13
2022-08-31T11:57:37.456Z,99480.34
2022-08-31T12:07:55.903Z,99477.06
2022-08-31T12:18:19.921Z,99434.19
2022-08-31T12:29:10.925Z,99443.19
2022-08-31T12:39:27.967Z,99419.41
2022-08-31T12:49:48.964Z,99412.03
2022-08-31T13:00:27.972Z,99404.50
2022-08-31T13:10:42.962Z,99425.62
2022-08-31T13:20:57.987Z,99411.25
2022-08-31T13:31:14.115Z,99394.25
2022-08-31T13:41:37.042Z,99364.41
2022-08-31T13:51:52.986Z,99395.50
2022-08-31T14:02:24.059Z,99394.06
2022-08-31T14:13:08.168Z,99364.88
2022-08-31T14:23:33.019Z,99391.53
2022-08-31T14:33:51.067Z,99391.97
2022-08-31T14:44:06.035Z,99380.19
2022-08-31T14:54:19.048Z,99400.94
2022-08-31T15:04:33.058Z,99387.62
2022-08-31T15:14:55.060Z,99400.53
2022-08-31T15:25:08.071Z,99390.41
2022-08-31T15:35:26.103Z,99401.56
2022-08-31T15:45:39.204Z,99403.78
2022-08-31T15:55:52.159Z,99406.66
2022-08-31T16:06:06.125Z,99418.94
2022-08-31T16:16:26.193Z,99380.38
2022-08-31T16:26:46.124Z,99376.28
2022-08-31T16:37:00.152Z,99387.31
2022-08-31T16:47:19.154Z,99388.63
2022-08-31T16:57:35.144Z,99382.31
2022-08-31T17:07:50.198Z,99404.97
2022-08-31T17:18:04.171Z,99437.66
2022-08-31T17:28:17.211Z,99488.31
2022-08-31T17:38:30.188Z,99511.25
2022-08-31T17:48:44.227Z,99520.09
2022-08-31T17:58:57.205Z,99540.03
2022-08-31T18:09:10.243Z,99540.91
2022-08-31T18:19:27.587Z,99544.72
2022-08-31T18:29:41.240Z,99559.69
2022-08-31T18:40:12.371Z,99568.78
2022-08-31T18:50:25.308Z,99584.16
2022-08-31T19:00:40.632Z,99573.63
2022-08-31T19:10:54.268Z,99583.72
2022-08-31T19:21:07.279Z,99589.91
2022-08-31T19:31:22.660Z,99593.25
2022-08-31T19:41:37.292Z,99535.25
2022-08-31T19:51:58.314Z,99500.69
2022-08-31T20:02:14.390Z,99599.56
2022-08-31T20:12:27.345Z,99624.31
2022-08-31T20:22:41.318Z,99627.56
2022-08-31T20:32:54.323Z,99618.53
2022-08-31T20:43:18.434Z,99623.34
2022-08-31T20:53:42.669Z,99621.56
2022-08-31T21:03:56.383Z,99630.97
2022-08-31T21:14:15.365Z,99632.88
2022-08-31T21:24:29.380Z,99629.84
2022-08-31T21:34:42.386Z,99632.66
2022-08-31T21:44:55.392Z,99629.09
2022-08-31T21:55:13.432Z,99627.37
2022-08-31T22:05:26.410Z,99632.00
2022-08-31T22:15:46.472Z,99630.31
2022-08-31T22:25:59.431Z,99629.66
2022-08-31T22:36:16.865Z,99622.72
2022-08-31T22:46:45.523Z,99618.03
2022-08-31T22:56:58.468Z,99618.84
2022-08-31T23:07:11.462Z,99618.56
2022-08-31T23:17:30.478Z,99611.63
2022-08-31T23:27:43.495Z,99617.00
2022-08-31T23:37:56.495Z,99617.47
2022-08-31T23:48:09.497Z,99615.69
2022-08-31T23:58:23.507Z,99605.56
